sensor_id;sensor_type;location;lat;lon;timestamp;temperature;humidity
53045;DHT22;38930;52.766;6.884;2022-07-10T00:02:11;14.30;99.90
53045;DHT22;38930;52.766;6.884;2022-07-10T00:04:36;14.50;99.90
53045;DHT22;38930;52.766;6.884;2022-07-10T00:07:02;14.90;99.90
53045;DHT22;38930;52.766;6.884;2022-07-10T00:09:29;14.20;99.90
53045;DHT22;38930;52.766;6.884;2022-07-10T00:11:54;14.10;99.90
53045;DHT22;38930;52.766;6.884;2022-07-10T00:14:20;14.00;99.90
53045;DHT22;38930;52.766;6.884;2022-07-10T00:16:46;14.10;99.90
53045;DHT22;38930;52.766;6.884;2022-07-10T00:19:11;13.90;99.90
53045;DHT22;38930;52.766;6.884;2022-07-10T00:21:37;13.90;99.90
53045;DHT22;38930;52.766;6.884;2022-07-10T00:24:03;13.90;99.90
53045;DHT22;38930;52.766;6.884;2022-07-10T00:26:29;13.90;99.90
53045;DHT22;38930;52.766;6.884;2022-07-10T00:28:54;13.80;99.90
53045;DHT22;38930;52.766;6.884;2022-07-10T00:31:21;14.30;99.90
53045;DHT22;38930;52.766;6.884;2022-07-10T00:33:46;13.70;99.90
53045;DHT22;38930;52.766;6.884;2022-07-10T00:36:13;14.70;99.90
53045;DHT22;38930;52.766;6.884;2022-07-10T00:38:39;13.60;99.90
53045;DHT22;38930;52.766;6.884;2022-07-10T00:41:05;13.60;99.90
53045;DHT22;38930;52.766;6.884;2022-07-10T00:43:57;13.60;99.90
53045;DHT22;38930;52.766;6.884;2022-07-10T00:46:24;13.90;99.90
53045;DHT22;38930;52.766;6.884;2022-07-10T00:48:50;13.70;99.90
53045;DHT22;38930;52.766;6.884;2022-07-10T00:51:17;13.80;99.90
53045;DHT22;38930;52.766;6.884;2022-07-10T00:53:45;13.70;99.90
53045;DHT22;38930;52.766;6.884;2022-07-10T00:56:11;13.70;99.90
53045;DHT22;38930;52.766;6.884;2022-07-10T00:58:40;14.00;99.90
53045;DHT22;38930;52.766;6.884;2022-07-10T01:01:07;13.50;99.90
53045;DHT22;38930;52.766;6.884;2022-07-10T01:03:32;13.70;99.90
53045;DHT22;38930;52.766;6.884;2022-07-10T01:05:58;14.20;99.90
53045;DHT22;38930;52.766;6.884;2022-07-10T01:08:24;13.40;99.90
53045;DHT22;38930;52.766;6.884;2022-07-10T01:10:50;13.40;99.90
53045;DHT22;38930;52.766;6.884;2022-07-10T01:13:16;13.60;99.90
53045;DHT22;38930;52.766;6.884;2022-07-10T01:15:42;14.40;99.90
53045;DHT22;38930;52.766;6.884;2022-07-10T01:18:08;13.40;99.90
53045;DHT22;38930;52.766;6.884;2022-07-10T01:20:34;13.30;99.90
53045;DHT22;38930;52.766;6.884;2022-07-10T01:23:00;14.30;99.90
53045;DHT22;38930;52.766;6.884;2022-07-10T01:25:26;13.40;99.90
53045;DHT22;38930;52.766;6.884;2022-07-10T01:27:52;13.40;99.90
53045;DHT22;38930;52.766;6.884;2022-07-10T01:30:17;13.40;99.90
53045;DHT22;38930;52.766;6.884;2022-07-10T01:32:44;13.40;99.90
53045;DHT22;38930;52.766;6.884;2022-07-10T01:35:10;13.40;99.90
53045;DHT22;38930;52.766;6.884;2022-07-10T01:37:39;13.30;99.90
53045;DHT22;38930;52.766;6.884;2022-07-10T01:40:06;13.40;99.90
53045;DHT22;38930;52.766;6.884;2022-07-10T01:42:32;13.40;99.90
53045;DHT22;38930;52.766;6.884;2022-07-10T01:44:58;13.40;99.90
53045;DHT22;38930;52.766;6.884;2022-07-10T01:47:23;13.40;99.90
53045;DHT22;38930;52.766;6.884;2022-07-10T01:49:51;13.40;99.90
53045;DHT22;38930;52.766;6.884;2022-07-10T01:52:18;13.40;99.90
53045;DHT22;38930;52.766;6.884;2022-07-10T01:54:43;13.70;99.90
53045;DHT22;38930;52.766;6.884;2022-07-10T01:57:09;13.50;99.90
53045;DHT22;38930;52.766;6.884;2022-07-10T01:59:34;13.40;99.90
53045;DHT22;38930;52.766;6.884;2022-07-10T02:02:00;13.50;99.90
53045;DHT22;38930;52.766;6.884;2022-07-10T02:04:25;13.70;99.90
53045;DHT22;38930;52.766;6.884;2022-07-10T02:07:17;13.50;99.90
53045;DHT22;38930;52.766;6.884;2022-07-10T02:09:44;13.80;99.90
53045;DHT22;38930;52.766;6.884;2022-07-10T02:12:11;13.70;99.90
53045;DHT22;38930;52.766;6.884;2022-07-10T02:14:38;13.40;99.90
53045;DHT22;38930;52.766;6.884;2022-07-10T02:17:05;13.50;99.90
53045;DHT22;38930;52.766;6.884;2022-07-10T02:19:31;13.40;99.90
53045;DHT22;38930;52.766;6.884;2022-07-10T02:21:56;13.50;99.90
53045;DHT22;38930;52.766;6.884;2022-07-10T02:24:22;13.20;99.90
53045;DHT22;38930;52.766;6.884;2022-07-10T02:26:48;13.30;99.90
53045;DHT22;38930;52.766;6.884;2022-07-10T02:29:14;13.20;99.90
53045;DHT22;38930;52.766;6.884;2022-07-10T02:31:39;14.10;99.90
53045;DHT22;38930;52.766;6.884;2022-07-10T02:34:09;13.20;99.90
53045;DHT22;38930;52.766;6.884;2022-07-10T02:36:35;13.10;99.90
53045;DHT22;38930;52.766;6.884;2022-07-10T02:39:01;13.10;99.90
53045;DHT22;38930;52.766;6.884;2022-07-10T02:41:27;13.20;99.90
53045;DHT22;38930;52.766;6.884;2022-07-10T02:43:52;13.30;99.90
53045;DHT22;38930;52.766;6.884;2022-07-10T02:46:18;13.00;99.90
53045;DHT22;38930;52.766;6.884;2022-07-10T02:48:43;12.90;99.90
53045;DHT22;38930;52.766;6.884;2022-07-10T02:51:09;13.10;99.90
53045;DHT22;38930;52.766;6.884;2022-07-10T02:53:35;12.20;99.90
53045;DHT22;38930;52.766;6.884;2022-07-10T02:56:00;13.10;99.90
53045;DHT22;38930;52.766;6.884;2022-07-10T02:58:27;12.80;99.90
53045;DHT22;38930;52.766;6.884;2022-07-10T03:00:53;13.20;99.90
53045;DHT22;38930;52.766;6.884;2022-07-10T03:03:19;12.80;99.90
53045;DHT22;38930;52.766;6.884;2022-07-10T03:05:45;12.90;99.90
53045;DHT22;38930;52.766;6.884;2022-07-10T03:08:11;12.80;99.90
53045;DHT22;38930;52.766;6.884;2022-07-10T03:10:36;12.70;99.90
53045;DHT22;38930;52.766;6.884;2022-07-10T03:13:02;12.90;99.90
53045;DHT22;38930;52.766;6.884;2022-07-10T03:15:28;12.80;99.90
53045;DHT22;38930;52.766;6.884;2022-07-10T03:17:54;12.70;99.90
53045;DHT22;38930;52.766;6.884;2022-07-10T03:20:20;12.70;99.90
53045;DHT22;38930;52.766;6.884;2022-07-10T03:22:45;12.60;99.90
53045;DHT22;38930;52.766;6.884;2022-07-10T03:25:11;12.70;99.90
53045;DHT22;38930;52.766;6.884;2022-07-10T03:27:37;12.60;99.90
53045;DHT22;38930;52.766;6.884;2022-07-10T03:30:04;12.60;99.90
53045;DHT22;38930;52.766;6.884;2022-07-10T03:32:30;12.70;99.90
53045;DHT22;38930;52.766;6.884;2022-07-10T03:34:55;12.60;99.90
53045;DHT22;38930;52.766;6.884;2022-07-10T03:37:21;12.60;99.90
53045;DHT22;38930;52.766;6.884;2022-07-10T03:39:47;12.60;99.90
53045;DHT22;38930;52.766;6.884;2022-07-10T03:42:12;12.50;99.90
53045;DHT22;38930;52.766;6.884;2022-07-10T03:44:38;12.50;99.90
53045;DHT22;38930;52.766;6.884;2022-07-10T03:47:03;12.50;99.90
53045;DHT22;38930;52.766;6.884;2022-07-10T03:49:29;12.60;99.90
53045;DHT22;38930;52.766;6.884;2022-07-10T03:51:59;12.60;99.90
53045;DHT22;38930;52.766;6.884;2022-07-10T03:54:25;12.40;99.90
53045;DHT22;38930;52.766;6.884;2022-07-10T03:56:50;12.60;99.90
53045;DHT22;38930;52.766;6.884;2022-07-10T03:59:35;12.60;99.90
53045;DHT22;38930;52.766;6.884;2022-07-10T04:02:00;12.60;99.90
53045;DHT22;38930;52.766;6.884;2022-07-10T04:04:26;12.90;99.90
53045;DHT22;38930;52.766;6.884;2022-07-10T04:06:51;12.60;99.90
53045;DHT22;38930;52.766;6.884;2022-07-10T04:09:17;12.50;99.90
53045;DHT22;38930;52.766;6.884;2022-07-10T04:11:42;12.60;99.90
53045;DHT22;38930;52.766;6.884;2022-07-10T04:14:08;12.60;99.90
53045;DHT22;38930;52.766;6.884;2022-07-10T04:16:33;12.80;99.90
53045;DHT22;38930;52.766;6.884;2022-07-10T04:18:59;12.90;99.90
53045;DHT22;38930;52.766;6.884;2022-07-10T04:21:24;12.80;99.90
53045;DHT22;38930;52.766;6.884;2022-07-10T04:23:50;13.00;99.90
53045;DHT22;38930;52.766;6.884;2022-07-10T04:26:16;13.90;99.90
53045;DHT22;38930;52.766;6.884;2022-07-10T04:28:41;13.10;99.90
53045;DHT22;38930;52.766;6.884;2022-07-10T04:31:07;13.10;99.90
53045;DHT22;38930;52.766;6.884;2022-07-10T04:33:32;13.10;99.90
53045;DHT22;38930;52.766;6.884;2022-07-10T04:35:58;13.20;99.90
53045;DHT22;38930;52.766;6.884;2022-07-10T04:38:23;13.30;99.90
53045;DHT22;38930;52.766;6.884;2022-07-10T04:40:50;13.30;99.90
53045;DHT22;38930;52.766;6.884;2022-07-10T04:43:15;13.40;99.90
53045;DHT22;38930;52.766;6.884;2022-07-10T04:45:41;13.50;99.90
53045;DHT22;38930;52.766;6.884;2022-07-10T04:48:06;13.50;99.90
53045;DHT22;38930;52.766;6.884;2022-07-10T04:50:32;13.60;99.90
53045;DHT22;38930;52.766;6.884;2022-07-10T04:52:58;14.50;99.90
53045;DHT22;38930;52.766;6.884;2022-07-10T04:55:23;13.60;99.90
53045;DHT22;38930;52.766;6.884;2022-07-10T04:57:49;13.50;99.90
53045;DHT22;38930;52.766;6.884;2022-07-10T05:00:15;13.60;99.90
53045;DHT22;38930;52.766;6.884;2022-07-10T05:02:41;13.80;99.90
53045;DHT22;38930;52.766;6.884;2022-07-10T05:05:07;13.70;99.90
53045;DHT22;38930;52.766;6.884;2022-07-10T05:07:33;13.90;99.90
53045;DHT22;38930;52.766;6.884;2022-07-10T05:09:58;13.80;99.90
53045;DHT22;38930;52.766;6.884;2022-07-10T05:12:24;13.90;99.90
53045;DHT22;38930;52.766;6.884;2022-07-10T05:14:49;14.00;99.90
53045;DHT22;38930;52.766;6.884;2022-07-10T05:17:15;14.00;99.90
53045;DHT22;38930;52.766;6.884;2022-07-10T05:19:41;14.00;99.90
53045;DHT22;38930;52.766;6.884;2022-07-10T05:22:06;14.00;99.90
53045;DHT22;38930;52.766;6.884;2022-07-10T05:24:32;13.90;99.90
53045;DHT22;38930;52.766;6.884;2022-07-10T05:26:58;13.90;99.90
53045;DHT22;38930;52.766;6.884;2022-07-10T05:29:24;13.90;99.90
53045;DHT22;38930;52.766;6.884;2022-07-10T05:31:49;14.20;99.90
53045;DHT22;38930;52.766;6.884;2022-07-10T05:34:15;14.10;99.90
53045;DHT22;38930;52.766;6.884;2022-07-10T05:36:40;14.30;99.90
53045;DHT22;38930;52.766;6.884;2022-07-10T05:39:06;14.20;99.90
53045;DHT22;38930;52.766;6.884;2022-07-10T05:41:32;14.40;99.90
53045;DHT22;38930;52.766;6.884;2022-07-10T05:43:59;14.60;99.90
53045;DHT22;38930;52.766;6.884;2022-07-10T05:46:25;14.20;99.90
53045;DHT22;38930;52.766;6.884;2022-07-10T05:48:50;14.50;99.90
53045;DHT22;38930;52.766;6.884;2022-07-10T05:51:16;15.50;99.90
53045;DHT22;38930;52.766;6.884;2022-07-10T05:53:41;14.70;99.90
53045;DHT22;38930;52.766;6.884;2022-07-10T05:56:07;15.20;99.90
53045;DHT22;38930;52.766;6.884;2022-07-10T05:58:33;15.40;99.90
53045;DHT22;38930;52.766;6.884;2022-07-10T06:00:58;15.40;99.90
53045;DHT22;38930;52.766;6.884;2022-07-10T06:03:24;15.10;99.90
53045;DHT22;38930;52.766;6.884;2022-07-10T06:05:49;15.40;99.90
53045;DHT22;38930;52.766;6.884;2022-07-10T06:08:15;15.70;99.90
53045;DHT22;38930;52.766;6.884;2022-07-10T06:10:41;15.20;99.90
53045;DHT22;38930;52.766;6.884;2022-07-10T06:13:12;15.10;99.90
53045;DHT22;38930;52.766;6.884;2022-07-10T06:15:38;15.00;99.90
53045;DHT22;38930;52.766;6.884;2022-07-10T06:18:04;15.60;99.90
53045;DHT22;38930;52.766;6.884;2022-07-10T06:20:30;15.10;99.90
53045;DHT22;38930;52.766;6.884;2022-07-10T06:22:57;15.50;99.90
53045;DHT22;38930;52.766;6.884;2022-07-10T06:25:22;15.30;99.90
53045;DHT22;38930;52.766;6.884;2022-07-10T06:27:48;15.30;99.90
53045;DHT22;38930;52.766;6.884;2022-07-10T06:30:14;15.60;99.90
53045;DHT22;38930;52.766;6.884;2022-07-10T06:32:40;15.20;99.90
53045;DHT22;38930;52.766;6.884;2022-07-10T06:35:06;15.60;99.90
53045;DHT22;38930;52.766;6.884;2022-07-10T06:37:32;15.60;99.90
53045;DHT22;38930;52.766;6.884;2022-07-10T06:39:58;15.50;99.90
53045;DHT22;38930;52.766;6.884;2022-07-10T06:42:24;15.80;99.90
53045;DHT22;38930;52.766;6.884;2022-07-10T06:44:49;15.60;99.90
53045;DHT22;38930;52.766;6.884;2022-07-10T06:47:17;16.90;99.90
53045;DHT22;38930;52.766;6.884;2022-07-10T06:50:05;15.90;99.90
53045;DHT22;38930;52.766;6.884;2022-07-10T06:52:32;16.00;99.90
53045;DHT22;38930;52.766;6.884;2022-07-10T06:54:59;15.80;99.90
53045;DHT22;38930;52.766;6.884;2022-07-10T06:57:25;15.80;99.90
53045;DHT22;38930;52.766;6.884;2022-07-10T06:59:51;16.00;99.90
53045;DHT22;38930;52.766;6.884;2022-07-10T07:02:18;15.80;99.90
53045;DHT22;38930;52.766;6.884;2022-07-10T07:04:43;15.80;99.90
53045;DHT22;38930;52.766;6.884;2022-07-10T07:07:12;16.20;99.90
53045;DHT22;38930;52.766;6.884;2022-07-10T07:09:38;15.70;99.90
53045;DHT22;38930;52.766;6.884;2022-07-10T07:12:05;15.60;99.90
53045;DHT22;38930;52.766;6.884;2022-07-10T07:14:32;15.70;99.90
53045;DHT22;38930;52.766;6.884;2022-07-10T07:16:57;15.60;99.90
53045;DHT22;38930;52.766;6.884;2022-07-10T07:19:26;16.00;99.90
53045;DHT22;38930;52.766;6.884;2022-07-10T07:21:58;16.20;99.90
53045;DHT22;38930;52.766;6.884;2022-07-10T07:24:42;15.60;99.90
53045;DHT22;38930;52.766;6.884;2022-07-10T07:27:09;16.20;99.90
53045;DHT22;38930;52.766;6.884;2022-07-10T07:29:34;15.40;99.90
53045;DHT22;38930;52.766;6.884;2022-07-10T07:32:00;15.60;99.90
53045;DHT22;38930;52.766;6.884;2022-07-10T07:34:25;15.80;99.90
53045;DHT22;38930;52.766;6.884;2022-07-10T07:36:51;15.60;99.90
53045;DHT22;38930;52.766;6.884;2022-07-10T07:39:17;16.00;99.90
53045;DHT22;38930;52.766;6.884;2022-07-10T07:41:42;15.90;99.90
53045;DHT22;38930;52.766;6.884;2022-07-10T07:44:08;15.90;99.90
53045;DHT22;38930;52.766;6.884;2022-07-10T07:46:34;15.80;99.90
53045;DHT22;38930;52.766;6.884;2022-07-10T07:48:59;16.50;99.90
53045;DHT22;38930;52.766;6.884;2022-07-10T07:51:25;17.50;99.90
53045;DHT22;38930;52.766;6.884;2022-07-10T07:53:51;16.40;99.90
53045;DHT22;38930;52.766;6.884;2022-07-10T07:56:16;16.50;99.90
53045;DHT22;38930;52.766;6.884;2022-07-10T07:58:42;17.20;99.90
53045;DHT22;38930;52.766;6.884;2022-07-10T08:01:08;17.20;99.90
53045;DHT22;38930;52.766;6.884;2022-07-10T08:03:33;17.80;99.90
53045;DHT22;38930;52.766;6.884;2022-07-10T08:05:59;17.30;99.90
53045;DHT22;38930;52.766;6.884;2022-07-10T08:08:24;17.50;99.90
53045;DHT22;38930;52.766;6.884;2022-07-10T08:10:50;17.60;99.90
53045;DHT22;38930;52.766;6.884;2022-07-10T08:13:16;17.50;99.90
53045;DHT22;38930;52.766;6.884;2022-07-10T08:15:41;17.60;99.90
53045;DHT22;38930;52.766;6.884;2022-07-10T08:18:07;18.50;99.90
53045;DHT22;38930;52.766;6.884;2022-07-10T08:20:33;18.10;99.90
53045;DHT22;38930;52.766;6.884;2022-07-10T08:22:58;17.70;99.90
53045;DHT22;38930;52.766;6.884;2022-07-10T08:25:24;17.60;99.90
53045;DHT22;38930;52.766;6.884;2022-07-10T08:27:50;17.80;99.90
53045;DHT22;38930;52.766;6.884;2022-07-10T08:30:16;17.90;99.90
53045;DHT22;38930;52.766;6.884;2022-07-10T08:32:42;17.30;99.90
53045;DHT22;38930;52.766;6.884;2022-07-10T08:35:08;17.10;99.90
53045;DHT22;38930;52.766;6.884;2022-07-10T08:37:38;16.90;99.90
53045;DHT22;38930;52.766;6.884;2022-07-10T08:40:04;17.00;99.90
53045;DHT22;38930;52.766;6.884;2022-07-10T08:42:32;16.80;99.90
53045;DHT22;38930;52.766;6.884;2022-07-10T08:44:58;16.70;99.90
53045;DHT22;38930;52.766;6.884;2022-07-10T08:47:23;16.70;99.90
53045;DHT22;38930;52.766;6.884;2022-07-10T08:49:51;16.50;99.90
53045;DHT22;38930;52.766;6.884;2022-07-10T08:52:34;16.60;99.90
53045;DHT22;38930;52.766;6.884;2022-07-10T08:55:03;16.60;99.90
53045;DHT22;38930;52.766;6.884;2022-07-10T08:57:30;16.90;99.90
53045;DHT22;38930;52.766;6.884;2022-07-10T08:59:57;16.80;99.90
53045;DHT22;38930;52.766;6.884;2022-07-10T09:02:22;16.70;99.90
53045;DHT22;38930;52.766;6.884;2022-07-10T09:04:48;16.80;99.90
53045;DHT22;38930;52.766;6.884;2022-07-10T09:07:14;16.80;99.90
53045;DHT22;38930;52.766;6.884;2022-07-10T09:09:50;16.80;99.90
53045;DHT22;38930;52.766;6.884;2022-07-10T09:12:16;17.20;99.90
53045;DHT22;38930;52.766;6.884;2022-07-10T09:14:42;17.20;99.90
53045;DHT22;38930;52.766;6.884;2022-07-10T09:17:07;17.30;99.90
53045;DHT22;38930;52.766;6.884;2022-07-10T09:19:33;17.60;99.90
53045;DHT22;38930;52.766;6.884;2022-07-10T09:22:09;18.00;99.90
53045;DHT22;38930;52.766;6.884;2022-07-10T09:24:40;18.20;99.90
53045;DHT22;38930;52.766;6.884;2022-07-10T09:27:07;17.40;99.90
53045;DHT22;38930;52.766;6.884;2022-07-10T09:29:44;17.50;99.90
53045;DHT22;38930;52.766;6.884;2022-07-10T09:32:11;18.40;99.90
53045;DHT22;38930;52.766;6.884;2022-07-10T09:34:48;17.60;99.90
53045;DHT22;38930;52.766;6.884;2022-07-10T09:37:21;17.50;99.90
53045;DHT22;38930;52.766;6.884;2022-07-10T09:40:00;17.50;99.90
53045;DHT22;38930;52.766;6.884;2022-07-10T09:42:42;17.70;99.90
53045;DHT22;38930;52.766;6.884;2022-07-10T09:45:13;17.20;99.90
53045;DHT22;38930;52.766;6.884;2022-07-10T09:52:57;17.30;99.90
53045;DHT22;38930;52.766;6.884;2022-07-10T09:55:24;17.00;99.90
53045;DHT22;38930;52.766;6.884;2022-07-10T09:58:10;16.70;99.90
53045;DHT22;38930;52.766;6.884;2022-07-10T10:00:37;16.50;99.90
53045;DHT22;38930;52.766;6.884;2022-07-10T10:03:05;16.90;99.90
53045;DHT22;38930;52.766;6.884;2022-07-10T10:05:33;16.60;99.90
53045;DHT22;38930;52.766;6.884;2022-07-10T10:08:25;17.10;99.90
53045;DHT22;38930;52.766;6.884;2022-07-10T10:10:50;17.10;99.90
53045;DHT22;38930;52.766;6.884;2022-07-10T10:13:21;17.80;99.90
53045;DHT22;38930;52.766;6.884;2022-07-10T10:15:48;18.20;99.90
53045;DHT22;38930;52.766;6.884;2022-07-10T10:18:17;17.00;99.90
53045;DHT22;38930;52.766;6.884;2022-07-10T10:20:45;17.70;99.90
53045;DHT22;38930;52.766;6.884;2022-07-10T10:23:14;18.00;99.90
53045;DHT22;38930;52.766;6.884;2022-07-10T10:25:43;17.90;99.90
53045;DHT22;38930;52.766;6.884;2022-07-10T10:28:10;17.90;99.90
53045;DHT22;38930;52.766;6.884;2022-07-10T10:30:41;17.10;99.90
53045;DHT22;38930;52.766;6.884;2022-07-10T10:36:06;17.40;99.90
53045;DHT22;38930;52.766;6.884;2022-07-10T10:41:23;17.20;99.90
53045;DHT22;38930;52.766;6.884;2022-07-10T10:46:34;18.30;99.90
53045;DHT22;38930;52.766;6.884;2022-07-10T10:49:07;17.60;99.90
53045;DHT22;38930;52.766;6.884;2022-07-10T10:52:09;17.50;99.90
53045;DHT22;38930;52.766;6.884;2022-07-10T10:59:52;18.80;99.90
53045;DHT22;38930;52.766;6.884;2022-07-10T11:04:58;17.60;99.90
53045;DHT22;38930;52.766;6.884;2022-07-10T11:08:02;18.10;99.90
53045;DHT22;38930;52.766;6.884;2022-07-10T11:10:32;17.80;99.90
53045;DHT22;38930;52.766;6.884;2022-07-10T11:15:25;18.30;99.90
53045;DHT22;38930;52.766;6.884;2022-07-10T11:17:51;19.30;99.90
53045;DHT22;38930;52.766;6.884;2022-07-10T11:20:17;17.70;99.90
53045;DHT22;38930;52.766;6.884;2022-07-10T11:22:52;18.10;99.90
53045;DHT22;38930;52.766;6.884;2022-07-10T11:25:52;18.50;99.90
53045;DHT22;38930;52.766;6.884;2022-07-10T11:31:13;18.30;99.90
53045;DHT22;38930;52.766;6.884;2022-07-10T11:33:41;18.30;99.90
53045;DHT22;38930;52.766;6.884;2022-07-10T11:36:12;18.10;99.90
53045;DHT22;38930;52.766;6.884;2022-07-10T11:38:39;18.90;99.90
53045;DHT22;38930;52.766;6.884;2022-07-10T11:41:15;18.40;99.90
53045;DHT22;38930;52.766;6.884;2022-07-10T11:43:52;18.70;99.90
53045;DHT22;38930;52.766;6.884;2022-07-10T11:46:44;18.60;99.90
53045;DHT22;38930;52.766;6.884;2022-07-10T11:49:14;18.90;99.90
53045;DHT22;38930;52.766;6.884;2022-07-10T11:51:41;18.70;99.90
53045;DHT22;38930;52.766;6.884;2022-07-10T11:54:13;18.80;99.90
53045;DHT22;38930;52.766;6.884;2022-07-10T11:56:45;19.40;99.90
53045;DHT22;38930;52.766;6.884;2022-07-10T11:59:13;19.70;99.90
53045;DHT22;38930;52.766;6.884;2022-07-10T12:01:48;19.80;99.90
53045;DHT22;38930;52.766;6.884;2022-07-10T12:04:15;18.80;99.90
53045;DHT22;38930;52.766;6.884;2022-07-10T12:06:44;18.70;99.90
53045;DHT22;38930;52.766;6.884;2022-07-10T12:09:12;18.80;99.90
53045;DHT22;38930;52.766;6.884;2022-07-10T12:11:42;19.00;99.90
53045;DHT22;38930;52.766;6.884;2022-07-10T12:14:19;18.70;99.90
53045;DHT22;38930;52.766;6.884;2022-07-10T12:16:46;19.20;99.90
53045;DHT22;38930;52.766;6.884;2022-07-10T12:19:14;19.30;99.90
53045;DHT22;38930;52.766;6.884;2022-07-10T12:21:42;19.10;99.90
53045;DHT22;38930;52.766;6.884;2022-07-10T12:24:09;20.20;99.90
53045;DHT22;38930;52.766;6.884;2022-07-10T12:26:39;20.00;99.90
53045;DHT22;38930;52.766;6.884;2022-07-10T12:29:32;19.30;99.90
53045;DHT22;38930;52.766;6.884;2022-07-10T12:32:00;19.10;99.90
53045;DHT22;38930;52.766;6.884;2022-07-10T12:34:34;19.10;99.90
53045;DHT22;38930;52.766;6.884;2022-07-10T12:37:07;19.00;99.90
53045;DHT22;38930;52.766;6.884;2022-07-10T12:39:51;19.20;99.90
53045;DHT22;38930;52.766;6.884;2022-07-10T12:42:30;18.90;99.90
53045;DHT22;38930;52.766;6.884;2022-07-10T12:45:12;19.40;99.90
53045;DHT22;38930;52.766;6.884;2022-07-10T12:47:46;18.50;99.90
53045;DHT22;38930;52.766;6.884;2022-07-10T12:50:12;19.20;99.90
53045;DHT22;38930;52.766;6.884;2022-07-10T12:52:38;18.90;99.90
53045;DHT22;38930;52.766;6.884;2022-07-10T12:55:21;19.00;99.90
53045;DHT22;38930;52.766;6.884;2022-07-10T12:57:58;19.20;99.90
53045;DHT22;38930;52.766;6.884;2022-07-10T13:00:27;19.50;99.90
53045;DHT22;38930;52.766;6.884;2022-07-10T13:03:10;19.10;99.90
53045;DHT22;38930;52.766;6.884;2022-07-10T13:05:38;19.00;99.90
53045;DHT22;38930;52.766;6.884;2022-07-10T13:08:17;19.00;99.90
53045;DHT22;38930;52.766;6.884;2022-07-10T13:10:51;18.80;99.90
53045;DHT22;38930;52.766;6.884;2022-07-10T13:13:17;18.50;99.90
53045;DHT22;38930;52.766;6.884;2022-07-10T13:15:43;18.90;99.90
53045;DHT22;38930;52.766;6.884;2022-07-10T13:18:20;18.30;99.90
53045;DHT22;38930;52.766;6.884;2022-07-10T13:20:48;18.50;99.90
53045;DHT22;38930;52.766;6.884;2022-07-10T13:23:14;18.60;99.90
53045;DHT22;38930;52.766;6.884;2022-07-10T13:25:40;19.10;99.90
53045;DHT22;38930;52.766;6.884;2022-07-10T13:28:07;19.20;99.90
53045;DHT22;38930;52.766;6.884;2022-07-10T13:30:34;18.70;99.90
53045;DHT22;38930;52.766;6.884;2022-07-10T13:32:59;19.20;99.90
53045;DHT22;38930;52.766;6.884;2022-07-10T13:35:28;18.90;99.90
53045;DHT22;38930;52.766;6.884;2022-07-10T13:37:54;18.60;99.90
53045;DHT22;38930;52.766;6.884;2022-07-10T13:40:19;19.60;99.90
53045;DHT22;38930;52.766;6.884;2022-07-10T13:42:45;19.30;99.90
53045;DHT22;38930;52.766;6.884;2022-07-10T13:45:10;18.30;99.90
53045;DHT22;38930;52.766;6.884;2022-07-10T13:47:36;19.90;99.90
53045;DHT22;38930;52.766;6.884;2022-07-10T13:50:02;19.70;99.90
53045;DHT22;38930;52.766;6.884;2022-07-10T13:52:28;19.70;99.90
53045;DHT22;38930;52.766;6.884;2022-07-10T13:54:53;20.00;99.90
53045;DHT22;38930;52.766;6.884;2022-07-10T13:57:19;20.00;99.90
53045;DHT22;38930;52.766;6.884;2022-07-10T13:59:44;20.30;99.90
53045;DHT22;38930;52.766;6.884;2022-07-10T14:02:11;20.00;99.90
53045;DHT22;38930;52.766;6.884;2022-07-10T14:04:37;19.90;99.90
53045;DHT22;38930;52.766;6.884;2022-07-10T14:07:03;19.90;99.90
53045;DHT22;38930;52.766;6.884;2022-07-10T14:09:29;19.70;99.90
53045;DHT22;38930;52.766;6.884;2022-07-10T14:11:55;19.70;99.90
53045;DHT22;38930;52.766;6.884;2022-07-10T14:14:20;19.70;99.90
53045;DHT22;38930;52.766;6.884;2022-07-10T14:16:47;19.70;99.90
53045;DHT22;38930;52.766;6.884;2022-07-10T14:19:15;19.50;99.90
53045;DHT22;38930;52.766;6.884;2022-07-10T14:21:40;19.50;99.90
53045;DHT22;38930;52.766;6.884;2022-07-10T14:24:06;19.90;99.90
53045;DHT22;38930;52.766;6.884;2022-07-10T14:26:32;20.10;99.90
53045;DHT22;38930;52.766;6.884;2022-07-10T14:29:01;20.60;99.90
53045;DHT22;38930;52.766;6.884;2022-07-10T14:31:27;19.70;99.90
53045;DHT22;38930;52.766;6.884;2022-07-10T14:33:53;19.70;99.90
53045;DHT22;38930;52.766;6.884;2022-07-10T14:36:19;20.10;99.90
53045;DHT22;38930;52.766;6.884;2022-07-10T14:38:44;19.60;99.90
53045;DHT22;38930;52.766;6.884;2022-07-10T14:41:10;19.20;99.90
53045;DHT22;38930;52.766;6.884;2022-07-10T14:43:36;19.40;99.90
53045;DHT22;38930;52.766;6.884;2022-07-10T14:46:02;19.50;99.90
53045;DHT22;38930;52.766;6.884;2022-07-10T14:48:31;19.30;99.90
53045;DHT22;38930;52.766;6.884;2022-07-10T14:50:57;19.80;99.90
53045;DHT22;38930;52.766;6.884;2022-07-10T14:53:23;19.00;99.90
53045;DHT22;38930;52.766;6.884;2022-07-10T14:55:49;19.80;99.90
53045;DHT22;38930;52.766;6.884;2022-07-10T14:58:14;19.50;99.90
53045;DHT22;38930;52.766;6.884;2022-07-10T15:00:40;19.50;99.90
53045;DHT22;38930;52.766;6.884;2022-07-10T15:03:06;19.50;99.90
53045;DHT22;38930;52.766;6.884;2022-07-10T15:05:32;19.60;99.90
53045;DHT22;38930;52.766;6.884;2022-07-10T15:07:59;20.00;99.90
53045;DHT22;38930;52.766;6.884;2022-07-10T15:10:26;19.10;99.90
53045;DHT22;38930;52.766;6.884;2022-07-10T15:12:52;19.40;99.90
53045;DHT22;38930;52.766;6.884;2022-07-10T15:15:17;19.30;99.90
53045;DHT22;38930;52.766;6.884;2022-07-10T15:17:43;19.80;99.90
53045;DHT22;38930;52.766;6.884;2022-07-10T15:20:10;19.70;99.90
53045;DHT22;38930;52.766;6.884;2022-07-10T15:22:36;19.40;99.90
53045;DHT22;38930;52.766;6.884;2022-07-10T15:25:02;19.60;99.90
53045;DHT22;38930;52.766;6.884;2022-07-10T15:27:28;19.50;99.90
53045;DHT22;38930;52.766;6.884;2022-07-10T15:29:54;20.00;99.90
53045;DHT22;38930;52.766;6.884;2022-07-10T15:32:20;19.80;99.90
53045;DHT22;38930;52.766;6.884;2022-07-10T15:34:46;19.80;99.90
53045;DHT22;38930;52.766;6.884;2022-07-10T15:37:14;19.80;99.90
53045;DHT22;38930;52.766;6.884;2022-07-10T15:39:40;19.50;99.90
53045;DHT22;38930;52.766;6.884;2022-07-10T15:42:10;19.50;99.90
53045;DHT22;38930;52.766;6.884;2022-07-10T15:44:36;20.30;99.90
53045;DHT22;38930;52.766;6.884;2022-07-10T15:47:02;20.20;99.90
53045;DHT22;38930;52.766;6.884;2022-07-10T15:49:28;19.60;99.90
53045;DHT22;38930;52.766;6.884;2022-07-10T15:51:53;20.00;99.90
53045;DHT22;38930;52.766;6.884;2022-07-10T15:54:20;20.20;99.90
53045;DHT22;38930;52.766;6.884;2022-07-10T15:56:46;19.70;99.90
53045;DHT22;38930;52.766;6.884;2022-07-10T15:59:11;19.50;99.90
53045;DHT22;38930;52.766;6.884;2022-07-10T16:01:37;20.20;99.90